createdAt,value
2023-03-30T00:00:23.495Z,14.02
2023-03-30T00:02:53.927Z,13.88
2023-03-30T00:05:24.017Z,14.52
2023-03-30T00:07:51.192Z,11.50
2023-03-30T00:10:19.326Z,13.20
2023-03-30T00:12:50.597Z,13.98
2023-03-30T00:15:19.432Z,18.83
2023-03-30T00:17:46.558Z,17.58
2023-03-30T00:20:14.813Z,16.73
2023-03-30T00:22:43.306Z,18.88
2023-03-30T00:25:15.186Z,12.00
2023-03-30T00:27:42.517Z,13.95
2023-03-30T00:30:13.470Z,12.70
2023-03-30T00:32:41.040Z,13.02
2023-03-30T00:35:08.357Z,12.63
2023-03-30T00:37:37.483Z,14.57
2023-03-30T00:40:10.549Z,17.13
2023-03-30T00:42:38.014Z,14.88
2023-03-30T00:45:27.785Z,14.68
2023-03-30T00:48:09.094Z,12.48
2023-03-30T00:50:43.249Z,15.60
2023-03-30T00:53:22.984Z,10.15
2023-03-30T00:55:52.129Z,15.02
2023-03-30T00:58:21.533Z,14.85
2023-03-30T01:00:48.761Z,14.05
2023-03-30T01:03:30.550Z,12.75
2023-03-30T01:06:01.484Z,11.00
2023-03-30T01:08:32.665Z,13.27
2023-03-30T01:11:01.890Z,15.40
2023-03-30T01:13:30.971Z,11.82
2023-03-30T01:16:27.394Z,12.45
2023-03-30T01:19:03.295Z,14.57
2023-03-30T01:21:42.053Z,14.98
2023-03-30T01:24:11.831Z,10.63
2023-03-30T01:26:59.856Z,13.57
2023-03-30T01:29:41.953Z,14.77
2023-03-30T01:32:39.850Z,14.27
2023-03-30T01:35:41.120Z,12.65
2023-03-30T01:38:17.092Z,12.25
2023-03-30T01:41:20.141Z,13.57
2023-03-30T01:44:20.305Z,12.13
2023-03-30T01:47:12.650Z,14.73
2023-03-30T01:50:01.832Z,13.90
2023-03-30T01:52:42.629Z,13.38
2023-03-30T01:55:19.125Z,14.43
2023-03-30T01:58:14.537Z,15.15
2023-03-30T02:00:44.039Z,14.35
2023-03-30T02:03:19.370Z,14.98
2023-03-30T02:05:49.321Z,11.77
2023-03-30T02:08:20.883Z,12.25
2023-03-30T02:10:48.689Z,12.75
2023-03-30T02:13:17.734Z,11.60
2023-03-30T02:15:59.884Z,15.98
2023-03-30T02:18:27.204Z,10.50
2023-03-30T02:20:56.387Z,13.77
2023-03-30T02:23:24.980Z,15.43
2023-03-30T02:25:51.960Z,12.23
2023-03-30T02:28:18.936Z,14.27
2023-03-30T02:30:47.477Z,13.43
2023-03-30T02:33:49.419Z,14.50
2023-03-30T02:36:19.175Z,14.52
2023-03-30T02:38:52.017Z,13.15
2023-03-30T02:42:03.082Z,13.15
2023-03-30T02:44:54.614Z,11.40
2023-03-30T02:47:41.374Z,11.30
2023-03-30T02:50:31.466Z,13.98
2023-03-30T02:53:36.057Z,13.68
2023-03-30T02:56:27.659Z,13.00
2023-03-30T02:59:02.195Z,13.75
2023-03-30T03:04:03.349Z,13.60
2023-03-30T03:06:32.392Z,16.27
2023-03-30T03:08:59.525Z,15.25
2023-03-30T03:11:27.233Z,12.80
2023-03-30T03:13:55.773Z,13.82
2023-03-30T03:16:22.859Z,16.15
2023-03-30T03:18:50.036Z,15.80
2023-03-30T03:21:17.159Z,12.32
2023-03-30T03:23:44.248Z,19.08
2023-03-30T03:26:11.777Z,28.17
2023-03-30T03:28:38.727Z,14.27
2023-03-30T03:31:06.892Z,15.63
2023-03-30T03:33:34.066Z,12.90
2023-03-30T03:36:01.155Z,13.27
2023-03-30T03:38:28.865Z,12.98
2023-03-30T03:40:58.224Z,11.75
2023-03-30T03:43:26.196Z,17.13
2023-03-30T03:45:53.687Z,11.13
2023-03-30T03:48:22.626Z,15.48
2023-03-30T03:50:52.425Z,16.08
2023-03-30T03:53:19.970Z,10.52
2023-03-30T03:55:47.216Z,14.48
2023-03-30T03:58:15.162Z,13.95
2023-03-30T04:00:42.479Z,13.93
2023-03-30T04:03:09.997Z,11.40
2023-03-30T04:05:37.062Z,14.18
2023-03-30T04:08:04.607Z,15.45
2023-03-30T04:10:31.960Z,13.75
2023-03-30T04:12:59.131Z,12.07
2023-03-30T04:15:26.084Z,13.63
2023-03-30T04:17:58.257Z,12.98
2023-03-30T04:20:27.165Z,13.75
2023-03-30T04:22:54.533Z,11.75
2023-03-30T04:25:25.915Z,14.35
2023-03-30T04:27:53.553Z,12.82
2023-03-30T04:30:22.582Z,11.68
2023-03-30T04:33:03.415Z,14.30
2023-03-30T04:35:34.642Z,14.05
2023-03-30T04:38:02.614Z,11.68
2023-03-30T04:40:30.183Z,13.50
2023-03-30T04:43:02.290Z,10.05
2023-03-30T04:45:30.821Z,16.80
2023-03-30T04:47:58.002Z,12.55
2023-03-30T04:50:25.218Z,15.77
2023-03-30T04:52:52.292Z,14.38
2023-03-30T04:55:19.174Z,13.00
2023-03-30T04:57:46.613Z,14.43
2023-03-30T05:00:14.094Z,12.35
2023-03-30T05:02:41.231Z,12.63
2023-03-30T05:05:08.635Z,14.13
2023-03-30T05:07:36.147Z,12.52
2023-03-30T05:10:03.189Z,12.75
2023-03-30T05:12:30.252Z,14.13
2023-03-30T05:14:57.213Z,17.17
2023-03-30T05:17:24.239Z,13.55
2023-03-30T05:19:51.354Z,12.85
2023-03-30T05:22:18.309Z,14.27
2023-03-30T05:24:45.354Z,15.27
2023-03-30T05:27:13.615Z,12.65
2023-03-30T05:29:40.628Z,13.57
2023-03-30T05:32:07.768Z,13.48
2023-03-30T05:34:34.689Z,12.50
2023-03-30T05:37:01.877Z,15.75
2023-03-30T05:39:28.803Z,13.55
2023-03-30T05:41:55.808Z,14.73
2023-03-30T05:44:22.884Z,12.63
2023-03-30T05:46:49.980Z,18.02
2023-03-30T05:49:16.922Z,14.52
2023-03-30T05:51:43.909Z,15.13
2023-03-30T05:54:14.473Z,15.88
2023-03-30T05:56:42.582Z,12.88
2023-03-30T05:59:10.433Z,14.48
2023-03-30T06:01:37.988Z,12.57
2023-03-30T06:04:05.439Z,15.13
2023-03-30T06:06:32.613Z,14.48
2023-03-30T06:08:59.917Z,15.55
2023-03-30T06:11:28.444Z,12.02
2023-03-30T06:13:55.385Z,14.80
2023-03-30T06:16:22.483Z,19.33
2023-03-30T06:18:49.612Z,15.13
2023-03-30T06:21:16.745Z,13.15
2023-03-30T06:23:43.720Z,12.95
2023-03-30T06:26:11.654Z,11.77
2023-03-30T06:28:38.586Z,17.38
2023-03-30T06:31:12.474Z,12.90
2023-03-30T06:33:41.698Z,15.93
2023-03-30T06:36:14.451Z,17.23
2023-03-30T06:38:43.711Z,16.30
2023-03-30T06:41:12.832Z,14.00
2023-03-30T06:43:40.404Z,13.27
2023-03-30T06:46:08.413Z,18.35
2023-03-30T06:48:35.871Z,17.75
2023-03-30T06:51:04.002Z,14.38
2023-03-30T06:53:31.539Z,17.45
2023-03-30T06:55:59.289Z,14.93
2023-03-30T06:58:27.698Z,18.38
2023-03-30T07:00:55.117Z,16.83
2023-03-30T07:03:22.348Z,14.77
2023-03-30T07:05:52.735Z,12.23
2023-03-30T07:08:20.493Z,15.88
2023-03-30T07:10:48.159Z,16.25
2023-03-30T07:13:17.110Z,16.90
2023-03-30T07:15:45.720Z,17.20
2023-03-30T07:18:13.411Z,17.27
2023-03-30T07:20:40.550Z,12.05
2023-03-30T07:23:07.928Z,16.45
2023-03-30T07:25:35.030Z,13.90
2023-03-30T07:28:02.478Z,14.32
2023-03-30T07:30:29.559Z,18.67
2023-03-30T07:36:37.442Z,15.68
2023-03-30T07:39:04.704Z,15.02
2023-03-30T07:41:31.797Z,15.52
2023-03-30T07:43:58.972Z,14.13
2023-03-30T07:46:26.212Z,18.98
2023-03-30T07:48:53.176Z,16.15
2023-03-30T07:51:20.341Z,16.00
2023-03-30T07:53:48.851Z,15.93
2023-03-30T07:56:16.178Z,14.32
2023-03-30T07:58:43.574Z,19.65
2023-03-30T08:01:11.162Z,16.58
2023-03-30T08:03:39.479Z,20.88
2023-03-30T08:06:06.757Z,18.15
2023-03-30T08:08:34.522Z,20.95
2023-03-30T08:11:01.681Z,15.73
2023-03-30T08:13:28.787Z,17.23
2023-03-30T08:15:55.870Z,20.08
2023-03-30T08:18:22.909Z,18.30
2023-03-30T08:20:52.661Z,21.17
2023-03-30T08:23:20.656Z,18.33
2023-03-30T08:25:52.354Z,19.02
2023-03-30T08:28:21.382Z,21.83
2023-03-30T08:30:48.821Z,18.13
2023-03-30T08:33:16.286Z,18.63
2023-03-30T08:35:49.569Z,16.45
2023-03-30T08:38:19.675Z,17.88
2023-03-30T08:40:50.429Z,17.65
2023-03-30T08:43:32.533Z,19.77
2023-03-30T08:46:01.689Z,19.65
2023-03-30T08:48:34.145Z,18.88
2023-03-30T08:51:19.255Z,20.90
2023-03-30T08:53:47.422Z,22.25
2023-03-30T08:56:21.847Z,21.55
2023-03-30T09:01:57.832Z,19.85
2023-03-30T09:04:30.540Z,22.20
2023-03-30T09:07:16.039Z,23.45
2023-03-30T09:09:48.579Z,20.65
2023-03-30T09:12:42.982Z,37.42
2023-03-30T09:15:31.849Z,25.65
2023-03-30T09:18:34.534Z,22.02
2023-03-30T09:21:04.440Z,19.27
2023-03-30T09:23:33.314Z,22.70
2023-03-30T09:26:11.584Z,21.88
2023-03-30T09:28:59.596Z,21.98
2023-03-30T09:31:41.575Z,20.52
2023-03-30T09:34:14.800Z,21.65
2023-03-30T09:36:45.005Z,22.48
2023-03-30T09:39:20.396Z,21.38
2023-03-30T09:42:06.138Z,25.45
2023-03-30T09:44:37.458Z,26.58
2023-03-30T09:47:19.459Z,27.35
2023-03-30T09:49:47.275Z,20.48
2023-03-30T09:52:22.125Z,26.30
2023-03-30T09:54:49.262Z,23.55
2023-03-30T09:57:27.176Z,21.27
2023-03-30T09:59:56.000Z,20.38
2023-03-30T10:02:25.486Z,20.15
2023-03-30T10:05:00.500Z,22.23
2023-03-30T10:07:36.714Z,24.17
2023-03-30T10:10:21.792Z,24.30
2023-03-30T10:12:51.034Z,23.13
2023-03-30T10:15:20.927Z,21.63
2023-03-30T10:17:48.977Z,20.15
2023-03-30T10:24:14.784Z,23.80
2023-03-30T10:26:46.703Z,20.65
2023-03-30T10:29:18.483Z,23.85
2023-03-30T10:31:48.498Z,26.02
2023-03-30T10:34:23.597Z,25.33
2023-03-30T10:36:54.641Z,20.10
2023-03-30T10:39:30.366Z,19.58
2023-03-30T10:42:00.179Z,21.27
2023-03-30T10:44:35.908Z,17.95
2023-03-30T10:47:30.347Z,22.30
2023-03-30T10:50:03.432Z,18.88
2023-03-30T10:52:48.815Z,25.05
2023-03-30T10:55:45.006Z,18.58
2023-03-30T10:58:53.068Z,19.52
2023-03-30T11:01:42.836Z,16.05
2023-03-30T11:04:48.220Z,16.65
2023-03-30T11:07:44.183Z,26.90
2023-03-30T11:10:29.543Z,18.45
2023-03-30T11:13:05.059Z,17.50
2023-03-30T11:15:52.279Z,19.30
2023-03-30T11:18:19.261Z,16.88
2023-03-30T11:21:36.491Z,15.77
2023-03-30T11:24:23.129Z,20.42
2023-03-30T11:26:57.831Z,15.50
2023-03-30T11:29:37.845Z,18.20
2023-03-30T11:32:10.714Z,18.50
2023-03-30T11:34:51.675Z,17.67
2023-03-30T11:37:33.980Z,19.13
2023-03-30T11:40:17.410Z,17.42
2023-03-30T11:42:45.425Z,18.48
2023-03-30T11:45:18.721Z,18.50
2023-03-30T11:47:58.092Z,18.37
2023-03-30T11:50:33.986Z,16.40
2023-03-30T11:53:16.513Z,17.70
2023-03-30T11:55:51.348Z,16.17
2023-03-30T11:58:27.470Z,15.18
2023-03-30T12:01:25.464Z,15.73
2023-03-30T12:04:11.677Z,17.05
2023-03-30T12:07:00.752Z,17.88
2023-03-30T12:09:40.861Z,16.27
2023-03-30T12:12:18.489Z,21.38
2023-03-30T12:14:58.837Z,14.50
2023-03-30T12:17:42.708Z,17.27
2023-03-30T12:20:21.694Z,18.35
2023-03-30T12:23:17.167Z,16.65
2023-03-30T12:26:10.555Z,20.35
2023-03-30T12:29:36.058Z,19.73
2023-03-30T12:32:03.743Z,23.67
2023-03-30T12:37:10.303Z,19.15
2023-03-30T12:40:13.079Z,25.25
2023-03-30T12:42:46.953Z,20.08
2023-03-30T12:45:32.258Z,20.55
2023-03-30T12:48:05.027Z,20.30
2023-03-30T12:50:56.664Z,20.55
2023-03-30T12:54:00.900Z,22.30
2023-03-30T12:56:49.222Z,22.40
2023-03-30T12:59:27.144Z,24.83
2023-03-30T13:02:29.092Z,25.25
2023-03-30T13:04:56.825Z,20.08
2023-03-30T13:07:27.220Z,22.65
2023-03-30T13:09:59.410Z,24.33
2023-03-30T13:12:42.523Z,23.85
2023-03-30T13:15:48.917Z,22.90
2023-03-30T13:18:18.567Z,24.77
2023-03-30T13:20:48.731Z,27.83
2023-03-30T13:23:15.841Z,30.25
2023-03-30T13:26:06.349Z,27.02
2023-03-30T13:28:45.976Z,29.67
2023-03-30T13:31:34.182Z,29.70
2023-03-30T13:34:12.046Z,27.52
2023-03-30T13:37:09.996Z,31.55
2023-03-30T13:39:55.610Z,30.77
2023-03-30T13:42:31.614Z,30.42
2023-03-30T13:45:04.694Z,29.90
2023-03-30T13:47:57.549Z,30.42
2023-03-30T13:50:28.704Z,29.85
2023-03-30T13:53:00.492Z,34.25
2023-03-30T13:55:34.358Z,35.17
2023-03-30T13:58:24.104Z,32.85
2023-03-30T14:01:12.504Z,31.40
2023-03-30T14:03:46.738Z,35.58
2023-03-30T14:06:14.416Z,34.90
2023-03-30T14:08:48.057Z,37.63
2023-03-30T14:11:33.770Z,35.40
2023-03-30T14:14:03.422Z,36.17
2023-03-30T14:16:38.921Z,40.65
2023-03-30T14:19:32.294Z,38.92
2023-03-30T14:22:14.239Z,43.75
2023-03-30T14:25:04.294Z,39.72
2023-03-30T14:27:38.600Z,41.35
2023-03-30T14:32:46.698Z,45.92
2023-03-30T14:35:18.599Z,44.72
2023-03-30T14:37:51.799Z,41.00
2023-03-30T14:40:20.865Z,41.05
2023-03-30T14:42:48.071Z,42.35
2023-03-30T14:45:19.616Z,42.00
2023-03-30T14:47:48.854Z,40.92
2023-03-30T14:50:17.556Z,41.10
2023-03-30T14:52:47.027Z,39.28
2023-03-30T14:55:25.080Z,39.83
2023-03-30T14:57:53.088Z,35.17
2023-03-30T15:00:22.997Z,41.97
2023-03-30T15:02:59.113Z,36.85
2023-03-30T15:05:34.073Z,34.70
2023-03-30T15:08:03.554Z,32.55
2023-03-30T15:10:43.296Z,33.55
2023-03-30T15:13:17.111Z,35.47
2023-03-30T15:15:44.391Z,34.17
2023-03-30T15:18:21.437Z,35.22
2023-03-30T15:20:48.656Z,33.50
2023-03-30T15:23:16.522Z,37.25
2023-03-30T15:25:44.670Z,33.03
2023-03-30T15:28:20.951Z,35.17
2023-03-30T15:30:54.386Z,36.03
2023-03-30T15:33:39.858Z,36.33
2023-03-30T15:36:13.241Z,34.15
2023-03-30T15:38:58.896Z,34.78
2023-03-30T15:41:44.756Z,32.20
2023-03-30T15:44:17.429Z,35.63
2023-03-30T15:46:46.541Z,36.53
2023-03-30T15:49:16.752Z,36.80
2023-03-30T15:51:47.572Z,35.22
2023-03-30T15:54:22.518Z,36.72
2023-03-30T15:57:05.208Z,37.33
2023-03-30T16:00:02.174Z,38.28
2023-03-30T16:02:32.421Z,40.65
2023-03-30T16:05:04.282Z,33.78
2023-03-30T16:07:32.255Z,39.10
2023-03-30T16:09:59.322Z,39.50
2023-03-30T16:12:31.159Z,43.83
2023-03-30T16:14:58.823Z,39.85
2023-03-30T16:17:25.980Z,47.47
2023-03-30T16:19:53.040Z,44.08
2023-03-30T16:22:20.076Z,45.42
2023-03-30T16:24:48.383Z,44.90
2023-03-30T16:27:15.945Z,46.03
2023-03-30T16:29:42.993Z,44.80
2023-03-30T16:32:10.053Z,45.47
2023-03-30T16:34:37.048Z,47.80
2023-03-30T16:37:04.012Z,44.17
2023-03-30T16:39:30.940Z,44.90
2023-03-30T16:41:57.950Z,50.72
2023-03-30T16:44:25.588Z,45.28
2023-03-30T16:46:53.145Z,44.72
2023-03-30T16:49:25.787Z,49.35
2023-03-30T16:51:55.296Z,50.28
2023-03-30T16:54:31.939Z,47.03
2023-03-30T16:57:01.182Z,48.10
2023-03-30T16:59:30.727Z,52.80
2023-03-30T17:01:58.718Z,51.63
2023-03-30T17:04:26.065Z,54.67
2023-03-30T17:06:54.950Z,61.10
2023-03-30T17:09:22.178Z,53.75
2023-03-30T17:11:49.161Z,52.58
2023-03-30T17:14:16.830Z,55.40
2023-03-30T17:16:43.949Z,59.08
2023-03-30T17:19:14.856Z,58.88
2023-03-30T17:21:43.794Z,56.85
2023-03-30T17:24:12.837Z,56.35
2023-03-30T17:26:41.108Z,59.22
2023-03-30T17:29:09.177Z,54.45
2023-03-30T17:31:36.338Z,60.20
2023-03-30T17:34:04.166Z,63.60
2023-03-30T17:36:31.305Z,57.97
2023-03-30T17:38:59.692Z,55.05
2023-03-30T17:41:26.982Z,59.25
2023-03-30T17:43:54.015Z,61.33
2023-03-30T17:46:21.375Z,58.17
2023-03-30T17:48:48.744Z,58.25
2023-03-30T17:51:15.903Z,55.20
2023-03-30T17:53:43.233Z,59.90
2023-03-30T17:56:13.363Z,55.38
2023-03-30T17:58:40.554Z,58.95
2023-03-30T18:01:10.135Z,55.65
2023-03-30T18:03:39.392Z,64.53
2023-03-30T18:06:07.432Z,60.85
2023-03-30T18:08:34.561Z,56.58
2023-03-30T18:11:01.919Z,57.53
2023-03-30T18:13:30.629Z,64.38
2023-03-30T18:15:59.452Z,66.65
2023-03-30T18:18:29.500Z,58.38
2023-03-30T18:21:05.416Z,63.42
2023-03-30T18:23:34.583Z,66.45
2023-03-30T18:26:03.894Z,64.13
2023-03-30T18:28:31.692Z,62.03
2023-03-30T18:31:00.857Z,62.08
2023-03-30T18:33:28.069Z,63.70
2023-03-30T18:35:57.146Z,63.50
2023-03-30T18:38:25.724Z,60.17
2023-03-30T18:40:58.256Z,63.13
2023-03-30T18:43:28.756Z,62.03
2023-03-30T18:46:00.069Z,62.25
2023-03-30T18:48:28.593Z,61.40
2023-03-30T18:50:56.457Z,62.50
2023-03-30T18:53:27.293Z,64.28
2023-03-30T18:56:01.711Z,63.58
2023-03-30T18:58:31.005Z,67.78
2023-03-30T19:00:58.097Z,65.15
2023-03-30T19:03:27.491Z,66.65
2023-03-30T19:05:54.646Z,66.00
2023-03-30T19:08:24.159Z,61.97
2023-03-30T19:10:55.128Z,60.65
2023-03-30T19:13:23.275Z,59.55
2023-03-30T19:15:51.353Z,55.72
2023-03-30T19:18:18.945Z,60.22
2023-03-30T19:20:46.394Z,63.13
2023-03-30T19:23:15.740Z,57.88
2023-03-30T19:25:43.532Z,55.30
2023-03-30T19:28:11.816Z,57.28
2023-03-30T19:30:40.059Z,53.88
2023-03-30T19:33:11.379Z,56.75
2023-03-30T19:35:41.344Z,56.80
2023-03-30T19:38:08.983Z,54.20
2023-03-30T19:40:38.116Z,55.17
2023-03-30T19:43:05.448Z,53.97
2023-03-30T19:45:32.771Z,50.42
2023-03-30T19:47:59.796Z,51.95
2023-03-30T19:50:28.634Z,51.13
2023-03-30T19:52:57.008Z,52.72
2023-03-30T19:55:24.072Z,53.65
2023-03-30T19:57:51.143Z,49.72
2023-03-30T20:00:19.915Z,46.67
2023-03-30T20:02:52.181Z,45.95
2023-03-30T20:05:21.093Z,44.38
2023-03-30T20:07:48.738Z,45.97
2023-03-30T20:10:20.986Z,48.22
2023-03-30T20:12:49.563Z,48.63
2023-03-30T20:15:17.245Z,44.63
2023-03-30T20:17:44.637Z,47.88
2023-03-30T20:20:13.997Z,45.08
2023-03-30T20:22:43.221Z,42.47
2023-03-30T20:25:13.647Z,43.95
2023-03-30T20:27:41.095Z,44.05
2023-03-30T20:30:09.079Z,45.13
2023-03-30T20:32:36.179Z,42.22
2023-03-30T20:35:04.088Z,45.20
2023-03-30T20:37:31.274Z,46.10
2023-03-30T20:40:05.250Z,43.42
2023-03-30T20:42:32.884Z,46.20
2023-03-30T20:45:01.330Z,43.28
2023-03-30T20:47:31.000Z,41.45
2023-03-30T20:49:59.322Z,46.67
2023-03-30T20:52:27.558Z,44.88
2023-03-30T20:54:54.811Z,48.80
2023-03-30T20:57:22.476Z,38.67
2023-03-30T20:59:50.401Z,42.22
2023-03-30T21:02:17.624Z,41.25
2023-03-30T21:04:45.197Z,38.33
2023-03-30T21:07:12.739Z,36.83
2023-03-30T21:09:40.170Z,35.30
2023-03-30T21:12:09.791Z,35.80
2023-03-30T21:14:36.831Z,33.10
2023-03-30T21:17:03.957Z,38.30
2023-03-30T21:19:30.977Z,29.95
2023-03-30T21:21:57.966Z,32.25
2023-03-30T21:24:25.258Z,28.05
2023-03-30T21:26:52.266Z,29.23
2023-03-30T21:29:19.399Z,28.25
2023-03-30T21:31:46.326Z,26.85
2023-03-30T21:34:13.571Z,25.92
2023-03-30T21:36:40.809Z,24.02
2023-03-30T21:39:07.808Z,21.95
2023-03-30T21:41:34.789Z,24.15
2023-03-30T21:44:02.024Z,23.60
2023-03-30T21:46:29.422Z,24.48
2023-03-30T21:48:56.548Z,24.77
2023-03-30T21:51:29.926Z,24.27
2023-03-30T21:53:57.761Z,20.98
2023-03-30T21:56:26.760Z,18.45
2023-03-30T21:58:53.775Z,21.92
2023-03-30T22:01:24.306Z,17.52
2023-03-30T22:03:55.112Z,22.38
2023-03-30T22:06:22.893Z,20.80
2023-03-30T22:08:50.080Z,19.08
2023-03-30T22:11:19.643Z,20.13
2023-03-30T22:13:48.685Z,18.23
2023-03-30T22:16:31.158Z,16.60
2023-03-30T22:18:58.310Z,16.27
2023-03-30T22:21:29.372Z,18.67
2023-03-30T22:23:56.490Z,16.40
2023-03-30T22:26:23.907Z,19.35
2023-03-30T22:28:50.881Z,20.02
2023-03-30T22:31:17.947Z,19.65
2023-03-30T22:33:45.675Z,22.15
2023-03-30T22:36:17.448Z,21.27
2023-03-30T22:38:44.764Z,19.70
2023-03-30T22:41:12.091Z,20.75
2023-03-30T22:43:39.243Z,19.83
2023-03-30T22:46:07.030Z,20.30
2023-03-30T22:48:35.679Z,20.92
2023-03-30T22:51:08.441Z,19.98
2023-03-30T22:53:35.865Z,20.55
2023-03-30T22:56:02.937Z,17.75
2023-03-30T22:58:30.014Z,16.77
2023-03-30T23:01:07.037Z,18.80
2023-03-30T23:03:34.409Z,13.95
2023-03-30T23:06:01.898Z,14.20
2023-03-30T23:08:30.136Z,12.00
2023-03-30T23:10:57.541Z,12.32
2023-03-30T23:13:24.442Z,9.68
2023-03-30T23:15:51.368Z,11.93
2023-03-30T23:18:18.386Z,11.95
2023-03-30T23:20:46.832Z,12.15
2023-03-30T23:23:14.892Z,11.73
2023-03-30T23:25:51.984Z,11.73
2023-03-30T23:28:19.473Z,15.90
2023-03-30T23:30:46.589Z,13.40
2023-03-30T23:33:13.654Z,11.27
2023-03-30T23:35:47.558Z,11.00
2023-03-30T23:38:14.503Z,14.27
2023-03-30T23:40:41.643Z,10.63
2023-03-30T23:43:08.865Z,13.05
2023-03-30T23:45:36.060Z,15.13
2023-03-30T23:48:03.007Z,13.90
2023-03-30T23:50:29.979Z,10.95
2023-03-30T23:52:57.992Z,9.70
2023-03-30T23:55:25.103Z,10.65
2023-03-30T23:57:52.025Z,11.68
